Time;durP1;ratioP1;P1;durP2;ratioP2;P2;SDS_P1;SDS_P2;PMS_P1;PMS_P2;Temp;Humidity;BMP_temperature;BMP_pressure;BME280_temperature;BME280_humidity;BME280_pressure;Samples;Min_cycle;Max_cycle;Signal;HPM_P1;HPM_P2
2022/04/06 00:00:37;;;;;;;3.17;1.20;;;20.40;99.90;;;;;;4961036;28;20390;-93
2022/04/06 00:03:03;;;;;;;2.90;1.45;;;20.30;99.90;;;;;;4979258;28;20445;-92
2022/04/06 00:05:32;;;;;;;2.78;1.38;;;20.30;99.90;;;;;;4959903;28;20397;-92
2022/04/06 00:08:00;;;;;;;2.92;1.48;;;20.30;99.90;;;;;;4960667;28;20393;-92
2022/04/06 00:10:31;;;;;;;2.20;1.27;;;20.50;99.90;;;;;;4954414;28;20389;-92
2022/04/06 00:13:01;;;;;;;2.97;1.40;;;20.70;99.90;;;;;;4955000;29;20420;-92
2022/04/06 00:15:29;;;;;;;3.28;1.23;;;20.90;99.90;;;;;;4955508;29;20516;-93
2022/04/06 00:17:57;;;;;;;2.40;1.30;;;21.00;99.90;;;;;;4955770;29;20416;-93
2022/04/06 00:20:24;;;;;;;1.55;1.20;;;21.50;99.90;;;;;;4955846;28;20394;-92
2022/04/06 00:22:55;;;;;;;4.50;1.20;;;22.00;99.90;;;;;;4955970;28;20420;-94
2022/04/06 00:25:22;;;;;;;1.58;0.90;;;22.30;99.90;;;;;;4953067;29;20399;-92
2022/04/06 00:27:55;;;;;;;2.22;1.05;;;22.60;99.90;;;;;;4957346;28;20396;-94
2022/04/06 00:30:22;;;;;;;1.63;1.00;;;22.60;99.90;;;;;;4956708;29;20395;-95
2022/04/06 00:32:49;;;;;;;1.67;1.00;;;22.60;99.90;;;;;;4954156;28;20818;-91
2022/04/06 00:35:29;;;;;;;2.25;1.00;;;22.70;99.90;;;;;;4956504;28;20408;-93
2022/04/06 00:37:57;;;;;;;1.60;1.05;;;22.60;99.90;;;;;;4956633;29;20410;-92
2022/04/06 00:40:25;;;;;;;2.10;1.00;;;22.40;99.90;;;;;;4956648;29;20388;-93
2022/04/06 00:42:53;;;;;;;1.77;1.00;;;22.50;99.90;;;;;;4956606;29;20435;-93
2022/04/06 00:45:22;;;;;;;2.70;1.10;;;22.40;99.90;;;;;;4956538;29;20896;-92
2022/04/06 00:47:50;;;;;;;1.43;0.90;;;22.10;99.90;;;;;;4964569;28;20391;-94
2022/04/06 00:50:17;;;;;;;2.75;0.93;;;21.80;99.90;;;;;;4959427;28;20387;-91
2022/04/06 00:52:55;;;;;;;1.25;0.90;;;21.60;99.90;;;;;;4979269;28;20400;-94
2022/04/06 00:55:30;;;;;;;1.73;1.30;;;21.30;99.90;;;;;;4979340;28;20406;-90
2022/04/06 00:57:58;;;;;;;3.60;1.60;;;21.10;99.90;;;;;;4961716;28;20390;-92
2022/04/06 01:00:25;;;;;;;6.28;2.10;;;20.70;99.90;;;;;;4981981;28;20379;-92
2022/04/06 01:02:55;;;;;;;2.80;1.40;;;20.50;99.90;;;;;;4962478;28;20417;-89
2022/04/06 01:05:25;;;;;;;3.72;1.30;;;20.50;99.90;;;;;;4980946;28;20379;-89
2022/04/06 01:07:54;;;;;;;4.00;1.10;;;20.80;99.90;;;;;;4983962;28;20747;-91
2022/04/06 01:10:24;;;;;;;5.53;1.50;;;21.20;99.90;;;;;;4960419;28;20387;-93
2022/04/06 01:12:51;;;;;;;2.93;1.20;;;21.00;99.90;;;;;;4975383;28;20414;-89
2022/04/06 01:15:19;;;;;;;1.88;1.00;;;20.90;99.90;;;;;;4974485;28;20395;-95
2022/04/06 01:17:46;;;;;;;2.75;1.23;;;20.70;99.90;;;;;;4957327;28;20386;-93
2022/04/06 01:20:14;;;;;;;3.50;1.20;;;20.80;99.90;;;;;;4958408;28;20387;-90
2022/04/06 01:22:41;;;;;;;2.50;1.10;;;20.90;99.90;;;;;;4957564;28;20461;-93
2022/04/06 01:25:09;;;;;;;1.92;1.00;;;21.10;99.90;;;;;;4958206;28;20442;-92
2022/04/06 01:27:37;;;;;;;1.50;0.90;;;21.50;99.90;;;;;;4957949;28;20426;-90
2022/04/06 01:30:07;;;;;;;2.00;0.90;;;21.90;99.90;;;;;;4975633;28;20379;-90
2022/04/06 01:32:35;;;;;;;3.55;1.00;;;22.00;99.90;;;;;;4934716;29;20908;-88
2022/04/06 01:35:06;;;;;;;3.13;0.98;;;21.90;99.90;;;;;;4934751;29;20983;-91
2022/04/06 01:37:34;;;;;;;3.90;1.05;;;21.90;99.90;;;;;;4919116;29;20783;-90
2022/04/06 01:40:03;;;;;;;2.70;1.20;;;21.80;99.90;;;;;;4935439;29;20393;-94
2022/04/06 01:42:31;;;;;;;2.20;1.10;;;21.60;99.90;;;;;;4935632;29;20430;-92
2022/04/06 01:45:02;;;;;;;5.28;1.30;;;21.50;99.90;;;;;;4935305;29;20788;-91
2022/04/06 01:47:30;;;;;;;2.63;0.90;;;21.50;99.90;;;;;;4935333;29;20452;-92
2022/04/06 01:52:45;;;;;;;5.83;1.40;;;21.40;99.90;;;;;;4934068;29;20433;-88
2022/04/06 01:55:14;;;;;;;1.70;0.93;;;21.30;99.90;;;;;;4933294;29;20985;-86
2022/04/06 01:57:42;;;;;;;2.05;0.90;;;21.00;99.90;;;;;;4932352;29;20488;-90
2022/04/06 02:00:12;;;;;;;1.80;0.90;;;20.80;99.90;;;;;;4932221;29;20398;-90
2022/04/06 02:02:40;;;;;;;2.45;0.90;;;20.60;99.90;;;;;;4932935;29;20446;-87
2022/04/06 02:05:08;;;;;;;2.22;0.88;;;20.70;99.90;;;;;;4932429;29;20494;-90
2022/04/06 02:07:35;;;;;;;1.40;0.80;;;20.70;99.90;;;;;;4931888;29;20382;-88
2022/04/06 02:10:02;;;;;;;1.88;0.90;;;20.80;99.90;;;;;;4954432;28;20390;-91
2022/04/06 02:12:33;;;;;;;1.93;0.80;;;20.70;99.90;;;;;;4959436;28;20949;-94
2022/04/06 02:18:38;;;;;;;1.77;0.85;;;20.60;99.90;;;;;;4975851;28;20394;-90
2022/04/06 02:21:05;;;;;;;2.13;0.90;;;20.40;99.90;;;;;;4974609;28;20420;-90
2022/04/06 02:23:32;;;;;;;2.50;0.90;;;20.30;99.90;;;;;;4955287;28;20417;-87
2022/04/06 02:25:59;;;;;;;1.17;0.90;;;20.30;99.90;;;;;;4972597;28;20867;-88
2022/04/06 02:28:26;;;;;;;2.15;0.80;;;20.20;99.90;;;;;;4972643;28;20426;-91
2022/04/06 02:30:53;;;;;;;1.35;0.70;;;20.20;99.90;;;;;;4974768;28;20406;-90
2022/04/06 02:33:20;;;;;;;1.88;0.90;;;20.00;99.90;;;;;;4957401;28;20506;-89
2022/04/06 02:35:47;;;;;;;1.58;1.00;;;19.90;99.90;;;;;;4974101;28;20374;-93
2022/04/06 02:38:17;;;;;;;5.55;1.70;;;19.70;99.90;;;;;;4973741;28;20416;-88
2022/04/06 02:40:45;;;;;;;2.92;1.40;;;19.50;99.90;;;;;;4972753;28;20409;-92
2022/04/06 02:43:12;;;;;;;2.70;1.40;;;19.30;99.90;;;;;;4955631;28;20469;-90
2022/04/06 02:45:41;;;;;;;1.98;0.98;;;19.20;99.90;;;;;;4973967;28;20851;-90
2022/04/06 02:48:10;;;;;;;2.95;1.35;;;19.00;99.90;;;;;;4957347;28;20395;-93
2022/04/06 02:50:37;;;;;;;2.13;1.63;;;18.90;99.90;;;;;;4973720;28;20385;-92
2022/04/06 02:53:04;;;;;;;2.92;1.60;;;18.80;99.90;;;;;;4956014;28;20382;-89
2022/04/06 02:55:31;;;;;;;3.75;2.45;;;18.70;99.90;;;;;;4973257;28;20378;-91
2022/04/06 02:57:58;;;;;;;5.25;2.83;;;18.60;99.90;;;;;;4972789;28;20412;-92
2022/04/06 03:00:26;;;;;;;6.67;4.30;;;18.50;99.90;;;;;;4973462;28;20463;-89
2022/04/06 03:02:53;;;;;;;4.95;3.80;;;18.60;99.90;;;;;;4913691;29;20415;-92
2022/04/06 03:05:20;;;;;;;6.78;4.50;;;18.50;99.90;;;;;;4915280;29;20813;-88
2022/04/06 03:07:47;;;;;;;4.53;3.05;;;18.50;99.90;;;;;;4913550;29;20430;-90
2022/04/06 03:10:16;;;;;;;4.60;2.00;;;18.50;99.90;;;;;;4917107;29;20403;-87
2022/04/06 03:12:43;;;;;;;4.45;2.65;;;18.40;99.90;;;;;;4901666;29;20386;-91
2022/04/06 03:15:11;;;;;;;7.03;5.07;;;18.40;99.90;;;;;;4917542;29;20404;-91
2022/04/06 03:17:39;;;;;;;6.28;4.45;;;18.40;99.90;;;;;;4899852;29;21006;-89
2022/04/06 03:20:08;;;;;;;3.77;2.47;;;18.20;99.90;;;;;;4903683;29;20415;-94
2022/04/06 03:22:35;;;;;;;6.68;4.60;;;18.20;99.90;;;;;;4905213;29;20821;-89
2022/04/06 03:25:02;;;;;;;6.80;5.43;;;18.20;99.90;;;;;;4918904;29;20470;-91
2022/04/06 03:27:29;;;;;;;5.72;2.58;;;18.20;99.90;;;;;;4902591;29;20390;-92
2022/04/06 03:29:56;;;;;;;4.45;2.60;;;18.20;99.90;;;;;;4920848;29;20795;-90
2022/04/06 03:32:27;;;;;;;4.65;2.45;;;18.10;99.90;;;;;;4919082;29;20550;-90
2022/04/06 03:34:54;;;;;;;5.93;2.50;;;17.90;99.90;;;;;;4904399;29;20424;-91
2022/04/06 03:37:22;;;;;;;2.75;2.22;;;17.80;99.90;;;;;;4905531;29;20392;-93
2022/04/06 03:39:53;;;;;;;4.65;2.70;;;17.70;99.90;;;;;;4922720;28;20397;-92
2022/04/06 03:42:21;;;;;;;4.35;2.80;;;17.60;99.90;;;;;;4964641;28;20398;-95
2022/04/06 03:44:52;;;;;;;5.05;2.90;;;17.60;99.90;;;;;;4981762;28;20394;-91
2022/04/06 03:47:30;;;;;;;4.50;2.63;;;17.40;99.90;;;;;;4980910;28;20362;-90
2022/04/06 03:49:59;;;;;;;3.93;2.80;;;17.40;99.90;;;;;;4920988;29;20400;-90
2022/04/06 03:52:27;;;;;;;5.50;2.60;;;17.40;99.90;;;;;;4919985;29;20388;-93
2022/04/06 03:54:55;;;;;;;4.22;2.75;;;17.30;99.90;;;;;;4902025;29;20896;-89
2022/04/06 03:57:22;;;;;;;5.05;3.40;;;17.30;99.90;;;;;;4916099;29;20414;-90
2022/04/06 03:59:49;;;;;;;3.83;3.00;;;17.20;99.90;;;;;;4916451;29;20399;-91
2022/04/06 04:02:16;;;;;;;5.22;3.30;;;17.30;99.90;;;;;;4917869;29;20400;-95
2022/04/06 04:04:43;;;;;;;6.88;3.50;;;17.20;99.90;;;;;;4916516;29;20503;-91
2022/04/06 04:07:10;;;;;;;5.53;3.50;;;17.20;99.90;;;;;;4917315;29;20385;-93
2022/04/06 04:09:38;;;;;;;4.65;3.53;;;17.20;99.90;;;;;;4916308;29;20403;-89
2022/04/06 04:12:07;;;;;;;5.90;3.40;;;17.20;99.90;;;;;;4921256;29;20392;-94
2022/04/06 04:14:34;;;;;;;6.55;4.10;;;17.10;99.90;;;;;;4904952;29;20404;-86
2022/04/06 04:17:04;;;;;;;4.80;3.95;;;17.20;99.90;;;;;;4917721;29;20435;-88
2022/04/06 04:19:31;;;;;;;5.78;3.53;;;17.20;99.90;;;;;;4917102;29;20387;-90
2022/04/06 04:21:58;;;;;;;6.45;3.88;;;17.30;99.90;;;;;;4915832;29;20435;-93
2022/04/06 04:24:25;;;;;;;7.05;4.22;;;17.30;99.90;;;;;;4918494;29;20463;-86
2022/04/06 04:26:51;;;;;;;6.28;3.85;;;17.40;99.90;;;;;;4929013;29;20380;-88
2022/04/06 04:29:18;;;;;;;4.82;3.42;;;17.50;99.90;;;;;;4960719;28;20475;-90
2022/04/06 04:31:46;;;;;;;6.13;4.03;;;17.40;99.90;;;;;;4957283;29;20385;-88
2022/04/06 04:34:15;;;;;;;5.57;3.70;;;17.30;99.90;;;;;;4957657;29;20417;-88
2022/04/06 04:36:42;;;;;;;5.97;3.58;;;17.30;99.90;;;;;;4957023;29;20380;-90
2022/04/06 04:39:09;;;;;;;6.13;3.97;;;17.20;99.90;;;;;;4953421;28;20393;-87
2022/04/06 04:41:36;;;;;;;5.70;3.50;;;17.30;99.90;;;;;;4954548;28;20748;-88
2022/04/06 04:44:03;;;;;;;5.00;3.53;;;17.20;99.90;;;;;;4955759;28;20518;-90
2022/04/06 04:46:30;;;;;;;5.93;3.22;;;17.00;99.90;;;;;;4954411;29;20388;-90
2022/04/06 04:48:58;;;;;;;9.00;3.88;;;17.00;99.90;;;;;;4954972;29;20463;-90
2022/04/06 04:51:25;;;;;;;5.87;3.90;;;17.00;99.90;;;;;;4955033;28;20392;-88
2022/04/06 04:53:52;;;;;;;8.03;4.57;;;17.10;99.90;;;;;;4953373;29;20451;-89
2022/04/06 04:56:19;;;;;;;8.15;5.30;;;17.00;99.90;;;;;;4952426;28;20376;-90
2022/04/06 04:58:46;;;;;;;9.68;5.50;;;17.10;99.90;;;;;;4952387;29;20423;-85
2022/04/06 05:01:13;;;;;;;7.32;5.53;;;17.00;99.90;;;;;;4952215;28;20377;-86
2022/04/06 05:03:40;;;;;;;9.02;6.05;;;17.10;99.90;;;;;;4952363;29;20408;-88
2022/04/06 05:06:07;;;;;;;9.20;6.40;;;17.10;99.90;;;;;;4952297;29;20384;-87
2022/04/06 05:08:34;;;;;;;10.10;6.30;;;17.10;99.90;;;;;;4952062;28;20861;-88
2022/04/06 05:11:01;;;;;;;9.45;6.32;;;17.10;99.90;;;;;;4952152;29;20415;-88
2022/04/06 05:13:28;;;;;;;12.27;5.85;;;17.10;99.90;;;;;;4954599;28;20376;-86
2022/04/06 05:15:55;;;;;;;10.25;6.78;;;17.00;99.90;;;;;;4954010;28;20845;-95
2022/04/06 05:18:22;;;;;;;13.20;6.53;;;17.00;99.90;;;;;;4971077;28;20478;-85
2022/04/06 05:20:49;;;;;;;8.15;6.05;;;16.90;99.90;;;;;;4971092;28;20390;-84
2022/04/06 05:23:16;;;;;;;9.80;6.10;;;16.90;99.90;;;;;;4971420;28;20415;-86
2022/04/06 05:25:43;;;;;;;9.70;6.10;;;16.90;99.90;;;;;;4971371;28;20371;-86
2022/04/06 05:28:10;;;;;;;9.77;5.82;;;16.80;99.90;;;;;;4971486;28;20390;-86
2022/04/06 05:30:41;;;;;;;8.90;6.13;;;16.70;99.90;;;;;;4970857;28;20387;-87
2022/04/06 05:33:08;;;;;;;8.48;6.30;;;16.70;99.90;;;;;;4971148;28;20378;-86
2022/04/06 05:35:35;;;;;;;10.33;6.43;;;16.80;99.90;;;;;;4970976;28;20382;-87
2022/04/06 05:38:02;;;;;;;11.02;6.60;;;16.80;99.90;;;;;;4970858;28;20414;-88
2022/04/06 05:40:29;;;;;;;9.25;6.47;;;16.80;99.90;;;;;;4970625;28;20425;-87
2022/04/06 05:42:56;;;;;;;9.30;6.07;;;16.80;99.90;;;;;;4970885;28;20887;-89
2022/04/06 05:45:23;;;;;;;9.43;6.35;;;16.80;99.90;;;;;;4953351;28;20930;-88
2022/04/06 05:47:51;;;;;;;8.18;5.85;;;16.90;99.90;;;;;;4970570;28;20370;-88
2022/04/06 05:50:18;;;;;;;8.95;6.15;;;16.90;99.90;;;;;;4970569;28;20408;-88
2022/04/06 05:52:44;;;;;;;9.60;6.68;;;16.90;99.90;;;;;;4953099;28;20389;-89
2022/04/06 05:55:12;;;;;;;11.05;6.20;;;17.00;99.90;;;;;;4970356;28;20450;-85
2022/04/06 05:57:39;;;;;;;8.10;5.50;;;17.00;99.90;;;;;;4970849;28;20910;-88
2022/04/06 06:00:08;;;;;;;9.05;5.85;;;17.00;99.90;;;;;;4970873;28;20386;-89
2022/04/06 06:02:37;;;;;;;9.05;5.38;;;17.00;99.90;;;;;;4970609;28;20910;-91
2022/04/06 06:05:05;;;;;;;7.03;5.20;;;16.90;99.90;;;;;;4970350;28;20874;-89
2022/04/06 06:07:32;;;;;;;8.87;5.90;;;16.90;99.90;;;;;;4970580;28;20401;-84
2022/04/06 06:09:58;;;;;;;9.60;5.50;;;16.90;99.90;;;;;;4971127;28;20458;-83
2022/04/06 06:12:25;;;;;;;7.33;4.90;;;17.00;99.90;;;;;;4970780;28;20465;-86
2022/04/06 06:14:52;;;;;;;7.17;5.07;;;17.00;99.90;;;;;;4970697;28;20395;-85
2022/04/06 06:17:19;;;;;;;7.87;6.00;;;16.90;99.90;;;;;;4953301;28;20394;-88
2022/04/06 06:19:46;;;;;;;7.17;5.60;;;16.90;99.90;;;;;;4970279;28;20510;-84
2022/04/06 06:22:13;;;;;;;8.60;6.67;;;16.90;99.90;;;;;;4970145;28;20483;-83
2022/04/06 06:24:40;;;;;;;8.53;6.30;;;16.90;99.90;;;;;;4952667;28;20803;-85
2022/04/06 06:27:07;;;;;;;7.32;5.53;;;16.90;99.90;;;;;;4970043;28;20393;-82
2022/04/06 06:29:34;;;;;;;7.93;5.18;;;16.80;99.90;;;;;;4970225;28;20870;-91
2022/04/06 06:32:01;;;;;;;8.90;5.40;;;16.80;99.90;;;;;;4970529;28;20382;-88
2022/04/06 06:34:28;;;;;;;7.70;5.60;;;16.80;99.90;;;;;;4952704;28;20382;-87
2022/04/06 06:36:55;;;;;;;11.18;6.00;;;16.80;99.90;;;;;;4970610;28;20434;-86
2022/04/06 06:39:22;;;;;;;7.20;6.03;;;16.70;99.90;;;;;;4952417;28;20420;-90
2022/04/06 06:41:49;;;;;;;9.87;6.30;;;16.80;99.90;;;;;;4969984;28;20466;-89
2022/04/06 06:44:17;;;;;;;11.20;6.10;;;16.80;99.90;;;;;;4971348;28;20418;-84
2022/04/06 06:46:44;;;;;;;8.18;5.60;;;16.80;99.90;;;;;;4975159;28;20447;-90
2022/04/06 06:49:11;;;;;;;9.30;5.15;;;16.80;99.90;;;;;;4976767;28;20387;-89
2022/04/06 06:51:39;;;;;;;8.25;5.55;;;16.70;99.90;;;;;;4978363;28;20436;-87
2022/04/06 06:54:06;;;;;;;7.80;5.22;;;16.80;99.90;;;;;;4974746;28;20418;-91
2022/04/06 06:56:33;;;;;;;11.60;5.97;;;16.70;99.90;;;;;;4975685;28;21022;-86
2022/04/06 06:59:00;;;;;;;8.50;5.95;;;16.80;99.90;;;;;;4974729;28;20391;-94
2022/04/06 07:01:27;;;;;;;9.95;6.38;;;16.80;99.90;;;;;;4974693;28;20413;-86
2022/04/06 07:03:54;;;;;;;8.55;5.60;;;16.80;99.90;;;;;;4973865;28;20482;-87
2022/04/06 07:06:21;;;;;;;9.05;7.07;;;16.80;99.90;;;;;;4974008;28;20383;-87
2022/04/06 07:08:48;;;;;;;8.60;6.10;;;16.80;99.90;;;;;;4973635;28;20393;-93
2022/04/06 07:11:15;;;;;;;8.07;5.57;;;16.80;99.90;;;;;;4974380;28;20466;-87
2022/04/06 07:13:42;;;;;;;7.80;5.85;;;16.80;99.90;;;;;;4973094;28;20394;-84
2022/04/06 07:16:10;;;;;;;7.97;6.00;;;16.80;99.90;;;;;;4973275;28;20889;-89
2022/04/06 07:18:37;;;;;;;7.90;5.63;;;16.80;99.90;;;;;;4973392;28;20385;-88
2022/04/06 07:21:04;;;;;;;7.27;5.47;;;16.80;99.90;;;;;;4973261;28;20455;-87
2022/04/06 07:23:32;;;;;;;7.93;6.10;;;16.80;99.90;;;;;;4973210;28;20410;-84
2022/04/06 07:25:59;;;;;;;8.52;5.85;;;16.80;99.90;;;;;;4972975;28;20383;-84
2022/04/06 07:28:26;;;;;;;5.93;5.28;;;16.80;99.90;;;;;;4973034;28;20421;-87
2022/04/06 07:30:53;;;;;;;8.27;5.55;;;16.80;99.90;;;;;;4973332;28;20374;-87
2022/04/06 07:33:20;;;;;;;6.85;5.53;;;16.80;99.90;;;;;;4973449;28;20771;-86
2022/04/06 07:35:47;;;;;;;5.63;5.05;;;16.90;99.90;;;;;;4973316;28;20422;-87
2022/04/06 07:38:14;;;;;;;8.93;6.00;;;16.90;99.90;;;;;;4974613;28;20393;-91
2022/04/06 07:40:41;;;;;;;7.85;5.95;;;16.90;99.90;;;;;;4972927;28;20889;-90
2022/04/06 07:43:10;;;;;;;6.88;6.00;;;16.90;99.90;;;;;;4956387;28;20410;-93
2022/04/06 07:45:37;;;;;;;8.23;6.20;;;16.80;99.90;;;;;;4973115;28;20367;-86
2022/04/06 07:48:05;;;;;;;11.68;7.05;;;16.80;99.90;;;;;;4973148;28;20383;-89
2022/04/06 07:50:32;;;;;;;10.65;7.30;;;16.80;99.90;;;;;;4975208;28;20390;-86
2022/04/06 07:52:59;;;;;;;11.00;7.95;;;16.90;99.90;;;;;;4973156;28;20390;-93
2022/04/06 07:55:26;;;;;;;11.60;8.52;;;16.90;99.90;;;;;;4972804;28;20738;-89
2022/04/06 07:57:53;;;;;;;10.27;7.40;;;16.90;99.90;;;;;;4972583;28;20877;-85
2022/04/06 08:00:20;;;;;;;10.77;7.70;;;16.90;99.90;;;;;;4972873;28;20462;-87
2022/04/06 08:02:48;;;;;;;10.83;7.30;;;16.90;99.90;;;;;;4972247;28;20402;-87
2022/04/06 08:05:16;;;;;;;12.85;7.70;;;16.90;99.90;;;;;;4972503;28;20468;-89
2022/04/06 08:07:44;;;;;;;7.85;6.65;;;16.90;99.90;;;;;;4972522;28;20410;-84
2022/04/06 08:10:13;;;;;;;9.77;7.10;;;16.90;99.90;;;;;;4972390;28;20821;-88
2022/04/06 08:12:41;;;;;;;8.88;6.85;;;16.90;99.90;;;;;;4954612;28;20755;-84
2022/04/06 08:15:09;;;;;;;12.07;7.63;;;16.90;99.90;;;;;;4972050;28;20449;-85
2022/04/06 08:17:45;;;;;;;10.75;7.35;;;16.90;99.90;;;;;;4955298;28;20388;-86
2022/04/06 08:20:13;;;;;;;9.18;7.35;;;16.90;99.90;;;;;;4973084;28;20375;-87
2022/04/06 08:22:42;;;;;;;10.63;7.50;;;16.90;99.90;;;;;;4972218;28;20487;-85
2022/04/06 08:25:09;;;;;;;10.33;7.50;;;16.90;99.90;;;;;;4971785;28;20390;-85
2022/04/06 08:27:39;;;;;;;10.90;7.55;;;16.90;99.90;;;;;;4971870;28;20889;-87
2022/04/06 08:30:07;;;;;;;9.30;7.55;;;16.90;99.90;;;;;;4971826;28;20378;-88
2022/04/06 08:32:34;;;;;;;10.27;7.57;;;16.90;99.90;;;;;;4971928;28;20438;-89
2022/04/06 08:35:03;;;;;;;11.43;7.93;;;16.90;99.90;;;;;;4972760;28;20390;-87
2022/04/06 08:37:34;;;;;;;10.27;7.67;;;16.90;99.90;;;;;;4972100;28;20374;-87
2022/04/06 08:40:01;;;;;;;10.52;7.68;;;16.90;99.90;;;;;;4972318;28;20394;-90
2022/04/06 08:42:32;;;;;;;12.50;7.93;;;16.90;99.90;;;;;;4972036;28;20405;-87
2022/04/06 08:45:01;;;;;;;9.77;7.40;;;16.90;99.90;;;;;;4955023;28;20903;-87
2022/04/06 08:47:31;;;;;;;8.98;6.88;;;16.90;99.90;;;;;;4954088;28;20409;-92
2022/04/06 08:49:59;;;;;;;8.98;6.82;;;16.80;99.90;;;;;;4971295;28;20385;-87
2022/04/06 08:52:26;;;;;;;7.53;5.50;;;16.80;99.90;;;;;;4971468;28;20442;-87
2022/04/06 08:54:53;;;;;;;7.47;5.22;;;16.70;99.90;;;;;;4972156;28;20387;-84
2022/04/06 08:57:21;;;;;;;7.25;5.28;;;16.70;99.90;;;;;;4959571;28;20870;-88
2022/04/06 08:59:49;;;;;;;7.95;5.07;;;16.70;99.90;;;;;;4955551;28;20960;-88
2022/04/06 09:02:23;;;;;;;8.23;4.70;;;16.70;99.90;;;;;;4971788;28;20394;-86
2022/04/06 09:04:54;;;;;;;6.85;4.70;;;16.60;99.90;;;;;;4971098;28;20398;-85
2022/04/06 09:07:24;;;;;;;6.63;4.60;;;16.60;99.90;;;;;;4971758;28;20889;-87
2022/04/06 09:09:55;;;;;;;6.53;4.55;;;16.60;99.90;;;;;;4970392;28;20796;-85
2022/04/06 09:12:25;;;;;;;7.80;4.20;;;16.60;99.90;;;;;;4971618;28;20731;-89
2022/04/06 09:15:10;;;;;;;8.90;4.35;;;16.60;99.90;;;;;;4971209;28;20798;-87
2022/04/06 09:17:48;;;;;;;8.20;4.57;;;16.70;99.90;;;;;;4970911;28;20382;-88
2022/04/06 09:20:16;;;;;;;7.50;4.50;;;16.60;99.90;;;;;;4971056;28;20375;-90
2022/04/06 09:22:43;;;;;;;5.63;4.40;;;16.60;99.90;;;;;;4970843;28;20406;-88
2022/04/06 09:25:15;;;;;;;6.40;4.05;;;16.60;99.90;;;;;;4972076;28;20848;-87
2022/04/06 09:27:42;;;;;;;7.95;3.75;;;16.60;99.90;;;;;;4956265;28;20393;-84
2022/04/06 09:30:10;;;;;;;5.60;3.67;;;16.60;99.90;;;;;;4970859;28;20406;-86
2022/04/06 09:32:37;;;;;;;6.13;3.38;;;16.60;99.90;;;;;;4970849;28;20875;-88
2022/04/06 09:35:25;;;;;;;5.43;2.90;;;16.60;99.90;;;;;;4953963;28;20417;-86
2022/04/06 09:38:09;;;;;;;4.32;2.90;;;16.60;99.90;;;;;;4971766;28;20462;-86
2022/04/06 09:40:37;;;;;;;4.07;2.72;;;16.60;99.90;;;;;;4971018;28;20378;-88
2022/04/06 09:43:06;;;;;;;4.05;2.50;;;16.60;99.90;;;;;;4970662;28;20491;-88
2022/04/06 09:48:18;;;;;;;3.95;2.40;;;16.50;99.90;;;;;;4971034;28;20417;-89
2022/04/06 09:50:56;;;;;;;6.20;2.40;;;16.50;99.90;;;;;;4970476;28;20744;-89
2022/04/06 09:53:27;;;;;;;4.90;2.03;;;16.50;99.90;;;;;;4970456;28;20878;-89
2022/04/06 09:55:55;;;;;;;4.53;2.10;;;16.60;99.90;;;;;;4970681;28;20385;-84
2022/04/06 09:58:24;;;;;;;6.28;2.30;;;16.60;99.90;;;;;;4970488;28;20513;-87
2022/04/06 10:00:53;;;;;;;2.17;1.73;;;16.50;99.90;;;;;;4970373;28;20433;-88
2022/04/06 10:03:21;;;;;;;4.25;2.00;;;16.50;99.90;;;;;;4970305;28;20420;-88
2022/04/06 10:05:51;;;;;;;3.97;2.05;;;16.50;99.90;;;;;;4970597;28;20385;-88
2022/04/06 10:08:23;;;;;;;3.33;1.92;;;16.50;99.90;;;;;;4970141;28;20418;-86
2022/04/06 10:10:53;;;;;;;3.85;2.13;;;16.50;99.90;;;;;;4970226;28;20913;-87
2022/04/06 10:13:20;;;;;;;4.60;2.10;;;16.50;99.90;;;;;;4970029;28;20382;-86
2022/04/06 10:15:47;;;;;;;2.95;2.20;;;16.50;99.90;;;;;;4970243;28;20370;-89
2022/04/06 10:18:15;;;;;;;3.80;2.30;;;16.50;99.90;;;;;;4970142;28;20383;-90
2022/04/06 10:21:03;;;;;;;3.38;2.30;;;16.50;99.90;;;;;;4969841;28;20371;-86
2022/04/06 10:23:58;;;;;;;2.92;2.20;;;16.50;99.90;;;;;;4970290;28;20457;-89
2022/04/06 10:26:31;;;;;;;2.78;2.25;;;16.50;99.90;;;;;;4970353;28;20377;-85
2022/04/06 10:28:58;;;;;;;2.85;2.15;;;16.50;99.90;;;;;;4969997;28;20382;-88
2022/04/06 10:31:30;;;;;;;3.85;2.10;;;16.50;99.90;;;;;;4952910;28;20378;-88
2022/04/06 10:34:19;;;;;;;2.83;2.08;;;16.40;99.90;;;;;;4970356;28;20882;-89
2022/04/06 10:37:05;;;;;;;2.70;1.97;;;16.50;99.90;;;;;;4970857;28;20461;-85
2022/04/06 10:39:34;;;;;;;3.03;1.90;;;16.50;99.90;;;;;;4971268;28;20371;-84
2022/04/06 10:42:31;;;;;;;4.38;1.83;;;16.50;99.90;;;;;;4971323;28;20401;-91
2022/04/06 10:44:59;;;;;;;3.45;1.80;;;16.50;99.90;;;;;;4974105;28;20387;-86
2022/04/06 10:47:29;;;;;;;3.00;1.80;;;16.50;99.90;;;;;;4954201;28;20402;-86
2022/04/06 10:50:14;;;;;;;4.20;2.08;;;16.50;99.90;;;;;;4969984;28;20390;-86
2022/04/06 10:52:43;;;;;;;2.97;2.07;;;16.50;99.90;;;;;;4970042;28;20382;-91
2022/04/06 10:55:23;;;;;;;3.15;2.10;;;16.50;99.90;;;;;;4970136;28;20370;-86
2022/04/06 10:57:57;;;;;;;3.72;2.10;;;16.50;99.90;;;;;;4970661;28;20383;-89
2022/04/06 11:00:27;;;;;;;3.33;1.83;;;16.50;99.90;;;;;;4969999;28;20878;-86
2022/04/06 11:12:34;;;;;;;2.63;2.10;;;16.40;99.90;;;;;;4911038;29;20497;-92
2022/04/06 11:15:01;;;;;;;2.88;2.00;;;16.50;99.90;;;;;;4910409;29;20435;-90
2022/04/06 11:17:48;;;;;;;3.33;2.30;;;16.50;99.90;;;;;;4910990;29;20388;-89
2022/04/06 11:20:29;;;;;;;4.00;2.20;;;16.50;99.90;;;;;;4910711;29;20431;-91
2022/04/06 11:22:58;;;;;;;2.90;2.00;;;16.60;99.90;;;;;;4910802;29;20407;-91
2022/04/06 11:25:28;;;;;;;2.78;2.20;;;16.50;99.90;;;;;;4910427;29;20396;-92
2022/04/06 11:28:05;;;;;;;3.17;2.25;;;16.60;99.90;;;;;;4910266;29;20959;-92
2022/04/06 11:30:34;;;;;;;3.85;2.58;;;16.60;99.90;;;;;;4910626;29;20392;-89
2022/04/06 11:33:03;;;;;;;3.53;2.60;;;16.60;99.90;;;;;;4911835;29;20402;-89
2022/04/06 11:35:34;;;;;;;4.00;2.55;;;16.60;99.90;;;;;;4917633;29;20387;-92
2022/04/06 11:38:04;;;;;;;4.93;2.80;;;16.60;99.90;;;;;;4915285;29;20410;-93
2022/04/06 11:40:32;;;;;;;4.83;2.80;;;16.60;99.90;;;;;;4915598;29;20976;-91
2022/04/06 11:43:04;;;;;;;3.08;2.78;;;16.60;99.90;;;;;;4966639;28;20410;-92
2022/04/06 11:45:44;;;;;;;7.05;6.00;;;16.60;99.90;;;;;;4961310;28;20379;-92
2022/04/06 11:48:12;;;;;;;4.53;3.47;;;16.60;99.90;;;;;;4961916;28;20395;-91
2022/04/06 11:50:40;;;;;;;4.10;3.70;;;16.60;99.90;;;;;;4979304;28;20425;-89
2022/04/06 11:53:18;;;;;;;3.95;2.92;;;16.60;99.90;;;;;;4980031;28;20383;-91
2022/04/06 11:55:49;;;;;;;4.53;3.38;;;16.60;99.90;;;;;;4975922;28;20374;-91
2022/04/06 11:58:38;;;;;;;5.97;2.90;;;16.60;99.90;;;;;;4973194;28;20391;-92
2022/04/06 12:01:10;;;;;;;2.60;2.40;;;16.60;99.90;;;;;;4972823;28;20375;-90
2022/04/06 12:03:40;;;;;;;4.25;2.40;;;16.60;99.90;;;;;;4975328;28;20998;-90
2022/04/06 12:06:11;;;;;;;4.18;2.53;;;16.60;99.90;;;;;;4972146;28;20417;-87
2022/04/06 12:08:40;;;;;;;3.75;2.30;;;16.60;99.90;;;;;;4974557;28;20862;-89
2022/04/06 12:11:08;;;;;;;3.25;2.55;;;16.60;99.90;;;;;;4974706;28;20411;-89
2022/04/06 12:13:40;;;;;;;2.40;2.20;;;16.60;99.90;;;;;;4975423;28;20415;-89
2022/04/06 12:16:09;;;;;;;3.35;2.60;;;16.60;99.90;;;;;;4974671;28;20371;-88
2022/04/06 12:18:40;;;;;;;3.20;2.90;;;16.60;99.90;;;;;;4973676;28;20394;-91
2022/04/06 12:21:24;;;;;;;4.70;2.90;;;16.60;99.90;;;;;;4956828;28;20882;-92
2022/04/06 12:23:52;;;;;;;3.75;2.80;;;16.60;99.90;;;;;;4958666;28;20406;-91
2022/04/06 12:26:23;;;;;;;3.40;3.10;;;16.60;99.90;;;;;;4975603;28;20437;-92
2022/04/06 12:28:59;;;;;;;4.37;3.10;;;16.60;99.90;;;;;;4976402;28;20453;-90
2022/04/06 12:31:39;;;;;;;3.45;3.15;;;16.70;99.90;;;;;;4975011;28;20371;-88
2022/04/06 12:34:08;;;;;;;3.70;3.03;;;16.70;99.90;;;;;;4972961;28;20525;-89
2022/04/06 12:36:35;;;;;;;4.38;2.60;;;16.70;99.90;;;;;;4973054;28;20366;-91
2022/04/06 12:39:15;;;;;;;4.30;2.70;;;16.80;99.90;;;;;;4975823;28;20449;-90
2022/04/06 12:42:02;;;;;;;3.10;2.90;;;16.80;99.90;;;;;;4972138;28;20374;-88
2022/04/06 12:44:33;;;;;;;3.20;2.90;;;16.70;99.90;;;;;;4972699;28;20387;-91
2022/04/06 12:47:02;;;;;;;4.10;2.90;;;16.70;99.90;;;;;;4971971;28;20870;-90
2022/04/06 12:49:35;;;;;;;4.38;3.00;;;16.70;99.90;;;;;;4954527;28;20390;-91
2022/04/06 12:52:18;;;;;;;4.78;3.03;;;16.70;99.90;;;;;;4972688;28;20718;-88
2022/04/06 12:54:49;;;;;;;4.68;2.80;;;16.70;99.90;;;;;;4972242;28;20383;-92
2022/04/06 12:57:18;;;;;;;5.25;2.88;;;16.80;99.90;;;;;;4955848;28;20774;-89
2022/04/06 13:00:07;;;;;;;4.00;2.20;;;16.80;99.90;;;;;;4972054;28;20448;-87
2022/04/06 13:02:36;;;;;;;2.75;2.13;;;16.80;99.90;;;;;;4953924;28;20402;-90
2022/04/06 13:05:09;;;;;;;3.47;2.47;;;16.80;99.90;;;;;;4954127;28;20394;-87
2022/04/06 13:07:40;;;;;;;4.70;2.50;;;16.80;99.90;;;;;;4954293;28;20418;-85
2022/04/06 13:10:11;;;;;;;6.22;2.42;;;16.80;99.90;;;;;;4972582;28;20882;-88
2022/04/06 13:12:43;;;;;;;4.50;2.30;;;16.80;99.90;;;;;;4972359;28;20384;-89
2022/04/06 13:15:13;;;;;;;3.45;2.20;;;16.80;99.90;;;;;;4971977;28;20394;-89